createdAt,value
2022-11-16T00:01:30.118Z,96726.88
2022-11-16T00:03:59.847Z,96724.34
2022-11-16T00:06:27.276Z,96724.34
2022-11-16T00:09:19.280Z,96720.00
2022-11-16T00:11:45.976Z,96632.06
2022-11-16T00:14:12.563Z,96719.91
2022-11-16T00:16:39.218Z,96719.41
2022-11-16T00:19:06.977Z,96718.06
2022-11-16T00:21:34.134Z,96708.97
2022-11-16T00:24:00.889Z,96658.50
2022-11-16T00:26:27.503Z,96703.97
2022-11-16T00:28:55.157Z,96722.69
2022-11-16T00:31:21.876Z,96692.25
2022-11-16T00:33:49.233Z,96707.59
2022-11-16T00:36:16.707Z,96698.22
2022-11-16T00:38:43.464Z,96676.06
2022-11-16T00:41:10.536Z,96698.50
2022-11-16T00:43:37.506Z,96692.53
2022-11-16T00:46:05.024Z,96688.69
2022-11-16T00:48:32.270Z,96664.16
2022-11-16T00:50:59.017Z,96577.84
2022-11-16T00:53:25.750Z,96673.53
2022-11-16T00:55:52.331Z,96667.38
2022-11-16T00:58:18.930Z,96667.59
2022-11-16T01:00:45.562Z,96656.19
2022-11-16T01:03:12.178Z,96660.50
2022-11-16T01:05:39.544Z,96569.16
2022-11-16T01:08:06.960Z,96654.84
2022-11-16T01:10:33.884Z,96631.16
2022-11-16T01:13:00.457Z,96656.25
2022-11-16T01:15:28.314Z,96552.88
2022-11-16T01:17:56.134Z,96648.75
2022-11-16T01:20:25.745Z,96642.59
2022-11-16T01:22:52.749Z,96624.31
2022-11-16T01:25:20.239Z,96646.72
2022-11-16T01:27:47.373Z,96633.50
2022-11-16T01:30:16.602Z,96632.22
2022-11-16T01:32:43.507Z,96624.41
2022-11-16T01:35:15.643Z,96582.72
2022-11-16T01:37:42.257Z,96621.44
2022-11-16T01:40:10.133Z,96505.94
2022-11-16T01:42:36.887Z,96609.19
2022-11-16T01:45:06.627Z,96616.13
2022-11-16T01:47:33.728Z,96622.16
2022-11-16T01:50:11.672Z,96616.59
2022-11-16T01:52:44.269Z,96600.81
2022-11-16T01:55:12.013Z,96605.41
2022-11-16T01:57:43.134Z,96605.97
2022-11-16T02:00:12.245Z,96486.53
2022-11-16T02:02:38.842Z,96598.78
2022-11-16T02:05:06.895Z,96600.63
2022-11-16T02:08:16.539Z,96597.06
2022-11-16T02:11:21.223Z,96593.31
2022-11-16T02:14:32.348Z,96596.25
2022-11-16T02:17:21.424Z,96595.38
2022-11-16T02:20:19.684Z,96529.88
2022-11-16T02:22:53.074Z,96597.41
2022-11-16T02:25:30.663Z,96599.19
2022-11-16T02:28:15.051Z,96595.06
2022-11-16T02:30:47.606Z,96519.78
2022-11-16T02:33:20.180Z,96573.47
2022-11-16T02:35:56.836Z,96516.69
2022-11-16T02:38:35.944Z,96566.88
2022-11-16T02:41:08.267Z,96526.31
2022-11-16T02:43:42.694Z,96530.34
2022-11-16T02:46:16.709Z,96598.50
2022-11-16T02:48:50.121Z,96492.72
2022-11-16T02:51:18.767Z,96565.88
2022-11-16T02:54:08.638Z,96558.94
2022-11-16T02:57:02.998Z,96495.44
2022-11-16T02:59:36.698Z,96576.25
2022-11-16T03:02:20.861Z,96535.63
2022-11-16T03:04:52.161Z,96562.56
2022-11-16T03:07:24.000Z,96572.94
2022-11-16T03:09:52.073Z,96577.81
2022-11-16T03:12:25.441Z,96518.53
2022-11-16T03:14:59.371Z,96560.09
2022-11-16T03:17:30.505Z,96564.81
2022-11-16T03:20:12.372Z,96564.75
2022-11-16T03:22:46.349Z,96554.84
2022-11-16T03:25:16.454Z,96554.31
2022-11-16T03:27:42.972Z,96544.41
2022-11-16T03:30:24.518Z,96532.56
2022-11-16T03:33:09.040Z,96542.88
2022-11-16T03:35:46.176Z,96516.81
2022-11-16T03:38:15.477Z,96518.66
2022-11-16T03:40:45.869Z,96530.75
2022-11-16T03:43:13.249Z,96532.94
2022-11-16T03:45:40.704Z,96533.63
2022-11-16T03:48:08.063Z,96484.75
2022-11-16T03:50:34.637Z,96526.41
2022-11-16T03:53:01.206Z,96517.97
2022-11-16T03:55:27.789Z,96511.81
2022-11-16T03:57:54.427Z,96507.22
2022-11-16T04:00:21.049Z,96480.06
2022-11-16T04:02:47.624Z,96508.75
2022-11-16T04:05:32.655Z,96501.53
2022-11-16T04:08:18.196Z,96504.31
2022-11-16T04:11:03.347Z,96479.19
2022-11-16T04:13:50.734Z,96481.94
2022-11-16T04:16:36.219Z,96430.09
2022-11-16T04:19:21.039Z,96495.38
2022-11-16T04:22:12.414Z,96487.94
2022-11-16T04:24:41.177Z,96467.25
2022-11-16T04:27:29.640Z,96483.44
2022-11-16T04:29:57.983Z,96494.44
2022-11-16T04:32:43.049Z,96484.97
2022-11-16T04:35:28.376Z,96479.13
2022-11-16T04:37:57.076Z,96460.84
2022-11-16T04:40:27.964Z,96478.41
2022-11-16T04:42:56.626Z,96477.72
2022-11-16T04:45:42.712Z,96475.22
2022-11-16T04:48:09.958Z,96474.63
2022-11-16T04:50:37.082Z,96459.56
2022-11-16T04:53:05.281Z,96394.84
2022-11-16T04:55:32.734Z,96475.50
2022-11-16T04:57:59.772Z,96387.56
2022-11-16T05:00:26.673Z,96450.63
2022-11-16T05:02:58.211Z,96451.66
2022-11-16T05:05:27.511Z,96452.69
2022-11-16T05:07:54.118Z,96418.00
2022-11-16T05:10:20.650Z,96454.53
2022-11-16T05:12:47.287Z,96443.81
2022-11-16T05:15:13.940Z,96461.94
2022-11-16T05:17:40.545Z,96454.41
2022-11-16T05:20:26.476Z,96262.19
2022-11-16T05:22:55.053Z,96468.06
2022-11-16T05:25:21.891Z,96423.44
2022-11-16T05:27:48.787Z,96481.88
2022-11-16T05:30:15.656Z,96481.16
2022-11-16T05:32:42.196Z,96472.97
2022-11-16T05:35:08.882Z,96470.03
2022-11-16T05:37:35.596Z,96467.97
2022-11-16T05:40:02.155Z,96465.50
2022-11-16T05:42:28.724Z,96462.84
2022-11-16T05:44:55.357Z,96400.88
2022-11-16T05:47:22.026Z,96447.88
2022-11-16T05:49:48.624Z,96456.56
2022-11-16T05:52:15.237Z,96454.97
2022-11-16T05:54:41.774Z,96464.56
2022-11-16T05:57:08.407Z,96459.97
2022-11-16T05:59:35.338Z,96468.44
2022-11-16T06:02:03.988Z,96473.25
2022-11-16T06:04:30.605Z,96466.06
2022-11-16T06:06:57.212Z,96470.50
2022-11-16T06:09:23.757Z,96469.81
2022-11-16T06:11:50.376Z,96471.88
2022-11-16T06:14:17.016Z,96479.31
2022-11-16T06:16:43.669Z,96404.53
2022-11-16T06:19:10.252Z,96381.59
2022-11-16T06:21:36.896Z,96461.50
2022-11-16T06:24:08.894Z,96463.63
2022-11-16T06:26:36.284Z,96420.75
2022-11-16T06:29:03.194Z,96456.34
2022-11-16T06:31:30.258Z,96406.59
2022-11-16T06:33:56.774Z,96438.06
2022-11-16T06:36:23.383Z,96458.00
2022-11-16T06:38:50.937Z,96407.41
2022-11-16T06:41:17.625Z,96374.91
2022-11-16T06:43:44.435Z,96324.88
2022-11-16T06:46:11.088Z,96445.38
2022-11-16T06:48:37.893Z,96400.56
2022-11-16T06:51:04.624Z,96364.88
2022-11-16T06:56:16.420Z,96434.38
2022-11-16T06:58:43.208Z,96424.09
2022-11-16T07:01:11.570Z,96420.72
2022-11-16T07:03:38.624Z,96410.19
2022-11-16T07:06:10.812Z,96408.59
2022-11-16T07:08:38.016Z,96386.38
2022-11-16T07:11:06.440Z,96400.91
2022-11-16T07:13:34.405Z,96352.72
2022-11-16T07:16:03.088Z,96408.34
2022-11-16T07:18:29.773Z,96366.38
2022-11-16T07:20:56.321Z,96390.38
2022-11-16T07:23:22.945Z,96410.09
2022-11-16T07:25:49.494Z,96369.75
2022-11-16T07:28:16.064Z,96392.72
2022-11-16T07:30:44.721Z,96416.50
2022-11-16T07:33:11.367Z,96402.47
2022-11-16T07:35:37.930Z,96362.06
2022-11-16T07:38:04.546Z,96395.00
2022-11-16T07:40:31.151Z,96265.69
2022-11-16T07:42:58.760Z,96319.84
2022-11-16T07:45:25.347Z,96386.72
2022-11-16T07:47:53.533Z,96313.50
2022-11-16T07:50:20.209Z,96365.72
2022-11-16T07:52:46.890Z,96389.03
2022-11-16T07:55:13.619Z,96391.16
2022-11-16T07:57:40.457Z,96387.28
2022-11-16T08:00:08.362Z,96381.03
2022-11-16T08:02:34.993Z,96376.34
2022-11-16T08:05:01.606Z,96376.38
2022-11-16T08:07:28.210Z,96357.19
2022-11-16T08:09:55.451Z,96349.19
2022-11-16T08:12:22.077Z,96347.25
2022-11-16T08:14:48.669Z,96362.91
2022-11-16T08:17:15.752Z,96327.28
2022-11-16T08:19:42.512Z,96314.81
2022-11-16T08:22:09.494Z,96299.31
2022-11-16T08:24:36.057Z,96356.44
2022-11-16T08:27:03.117Z,96223.09
2022-11-16T08:29:29.731Z,96088.53
2022-11-16T08:31:56.297Z,96345.72
2022-11-16T08:34:22.951Z,96342.63
2022-11-16T08:36:49.613Z,96341.06
2022-11-16T08:39:17.396Z,96289.91
2022-11-16T08:41:44.413Z,96401.69
2022-11-16T08:44:11.485Z,96291.88
2022-11-16T08:46:38.099Z,96329.16
2022-11-16T08:49:04.749Z,96297.84
2022-11-16T08:54:15.235Z,96325.06
2022-11-16T08:56:41.778Z,96228.03
2022-11-16T08:59:08.327Z,96313.91
2022-11-16T09:01:35.027Z,96218.09
2022-11-16T09:04:01.793Z,96307.50
2022-11-16T09:06:28.757Z,96302.22
2022-11-16T09:08:56.281Z,96231.28
2022-11-16T09:11:24.694Z,96277.25
2022-11-16T09:16:37.127Z,96290.41
2022-11-16T09:19:03.662Z,96215.13
2022-11-16T09:21:30.686Z,96295.09
2022-11-16T09:23:58.083Z,96282.69
2022-11-16T09:26:25.424Z,96249.91
2022-11-16T09:29:00.548Z,96274.66
2022-11-16T09:31:28.671Z,96267.28
2022-11-16T09:33:58.692Z,96248.34
2022-11-16T09:36:27.528Z,96258.81
2022-11-16T09:39:25.749Z,96253.16
2022-11-16T09:42:18.750Z,96248.19
2022-11-16T09:44:48.256Z,96242.28
2022-11-16T09:47:21.867Z,96244.69
2022-11-16T09:50:01.680Z,96199.56
2022-11-16T09:52:37.088Z,96223.56
2022-11-16T09:55:19.113Z,96207.78
2022-11-16T09:57:47.401Z,96220.59
2022-11-16T10:00:19.632Z,96209.03
2022-11-16T10:03:00.392Z,96200.34
2022-11-16T10:05:30.084Z,96202.28
2022-11-16T10:08:09.882Z,96196.41
2022-11-16T10:10:36.349Z,96191.50
2022-11-16T10:13:14.989Z,96185.44
2022-11-16T10:16:10.662Z,96181.31
2022-11-16T10:19:25.227Z,96173.91
2022-11-16T10:22:49.090Z,96167.22
2022-11-16T10:25:38.109Z,96159.28
2022-11-16T10:28:04.618Z,96158.66
2022-11-16T10:30:40.384Z,96084.56
2022-11-16T10:33:12.770Z,96130.13
2022-11-16T10:35:49.207Z,96142.03
2022-11-16T10:38:25.015Z,96127.78
2022-11-16T10:41:18.453Z,96142.47
2022-11-16T10:43:47.041Z,96149.44
2022-11-16T10:46:31.445Z,96098.72
2022-11-16T10:49:13.169Z,96131.16
2022-11-16T10:51:39.814Z,96120.41
2022-11-16T10:54:17.137Z,96123.63
2022-11-16T10:56:47.185Z,96116.03
2022-11-16T10:59:34.817Z,96115.44
2022-11-16T11:02:21.192Z,96066.44
2022-11-16T11:05:08.228Z,96090.09
2022-11-16T11:07:40.045Z,96092.88
2022-11-16T11:10:30.473Z,96088.16
2022-11-16T11:13:26.275Z,96082.91
2022-11-16T11:16:13.782Z,96063.06
2022-11-16T11:18:40.383Z,96017.13
2022-11-16T11:21:13.993Z,96090.41
2022-11-16T11:23:51.612Z,96069.06
2022-11-16T11:26:35.964Z,96062.75
2022-11-16T11:29:22.625Z,96058.13
2022-11-16T11:31:52.956Z,95994.00
2022-11-16T11:34:23.657Z,95981.88
2022-11-16T11:36:57.692Z,96054.03
2022-11-16T11:42:14.075Z,96053.50
2022-11-16T11:44:49.815Z,96056.66
2022-11-16T11:50:45.802Z,96036.38
2022-11-16T11:53:24.636Z,96050.19
2022-11-16T11:55:57.826Z,96064.72
2022-11-16T11:58:34.026Z,95969.25
2022-11-16T12:01:24.872Z,96058.22
2022-11-16T12:04:13.871Z,96048.16
2022-11-16T12:07:16.128Z,96039.97
2022-11-16T12:10:01.001Z,96044.75
2022-11-16T12:12:51.963Z,96036.34
2022-11-16T12:15:35.443Z,95908.31
2022-11-16T12:18:43.645Z,96037.59
2022-11-16T12:21:19.606Z,96031.72
2022-11-16T12:23:56.114Z,96035.66
2022-11-16T12:26:44.909Z,96028.66
2022-11-16T12:29:23.769Z,96019.41
2022-11-16T12:32:13.545Z,96021.69
2022-11-16T12:35:00.330Z,96009.78
2022-11-16T12:37:45.249Z,96013.44
2022-11-16T12:40:33.720Z,96010.50
2022-11-16T12:43:21.368Z,96020.09
2022-11-16T12:46:29.319Z,95952.63
2022-11-16T12:49:24.353Z,95999.81
2022-11-16T12:51:55.797Z,96001.22
2022-11-16T12:55:19.093Z,96005.75
2022-11-16T12:57:57.792Z,96004.63
2022-11-16T13:00:24.410Z,95949.81
2022-11-16T13:03:18.981Z,96010.97
2022-11-16T13:05:59.362Z,95950.78
2022-11-16T13:08:45.975Z,95711.03
2022-11-16T13:11:20.890Z,95665.75
2022-11-16T13:13:53.929Z,96009.56
2022-11-16T13:16:22.869Z,96000.44
2022-11-16T13:18:50.563Z,95944.94
2022-11-16T13:21:34.072Z,96059.53
2022-11-16T13:24:05.420Z,95962.31
2022-11-16T13:27:09.468Z,95991.25
2022-11-16T13:29:59.520Z,95993.50
2022-11-16T13:32:44.537Z,95989.66
2022-11-16T13:35:16.662Z,95992.28
2022-11-16T13:37:50.913Z,95955.56
2022-11-16T13:40:30.544Z,95999.97
2022-11-16T13:43:09.247Z,96010.97
2022-11-16T13:45:44.566Z,95996.09
2022-11-16T13:48:25.586Z,96021.91
2022-11-16T13:50:55.194Z,96009.84
2022-11-16T13:56:57.397Z,95928.53
2022-11-16T13:59:28.275Z,95999.34
2022-11-16T14:02:04.162Z,96003.44
2022-11-16T14:05:01.166Z,96014.00
2022-11-16T14:07:47.368Z,96014.50
2022-11-16T14:10:32.838Z,96012.13
2022-11-16T14:13:00.412Z,96012.84
2022-11-16T14:15:38.676Z,96007.38
2022-11-16T14:18:08.698Z,96005.78
2022-11-16T14:20:51.175Z,95931.88
2022-11-16T14:23:47.001Z,96004.63
2022-11-16T14:26:19.101Z,95932.09
2022-11-16T14:29:07.548Z,96002.41
2022-11-16T14:31:57.511Z,96000.16
2022-11-16T14:34:48.128Z,95812.34
2022-11-16T14:37:29.763Z,96002.28
2022-11-16T14:40:14.801Z,96002.88
2022-11-16T14:43:23.050Z,96013.44
2022-11-16T14:45:56.802Z,96002.31
2022-11-16T14:48:27.947Z,95796.91
2022-11-16T14:51:22.929Z,95997.94
2022-11-16T14:53:54.972Z,95999.19
2022-11-16T14:56:22.029Z,96009.59
2022-11-16T14:58:53.900Z,95967.03
2022-11-16T15:01:31.291Z,95895.56
2022-11-16T15:04:04.414Z,96012.03
2022-11-16T15:06:40.688Z,96006.53
2022-11-16T15:09:07.563Z,95997.97
2022-11-16T15:11:58.201Z,95994.84
2022-11-16T15:14:30.035Z,96005.59
2022-11-16T15:16:59.050Z,96011.66
2022-11-16T15:19:30.405Z,96011.66
2022-11-16T15:21:59.612Z,96013.41
2022-11-16T15:24:32.467Z,96000.91
2022-11-16T15:27:34.076Z,96026.28
2022-11-16T15:30:18.447Z,96036.34
2022-11-16T15:32:47.172Z,96021.72
2022-11-16T15:35:25.717Z,96028.53
2022-11-16T15:38:14.599Z,96026.22
2022-11-16T15:40:50.700Z,96029.84
2022-11-16T15:43:19.162Z,95987.69
2022-11-16T15:45:46.647Z,96038.75
2022-11-16T15:48:20.052Z,96030.84
2022-11-16T15:51:23.414Z,96041.97
2022-11-16T15:53:53.281Z,96041.28
2022-11-16T15:56:25.991Z,96047.28
2022-11-16T15:58:58.959Z,96005.75
2022-11-16T16:01:25.979Z,96001.13
2022-11-16T16:04:05.972Z,96060.44
2022-11-16T16:06:54.468Z,96061.25
2022-11-16T16:09:39.266Z,96061.28
2022-11-16T16:12:16.827Z,96062.88
2022-11-16T16:14:44.268Z,96056.53
2022-11-16T16:17:21.158Z,96064.09
2022-11-16T16:19:55.747Z,96050.22
2022-11-16T16:22:29.649Z,96051.00
2022-11-16T16:24:56.600Z,96045.84
2022-11-16T16:27:29.066Z,95999.56
2022-11-16T16:29:58.005Z,96041.50
2022-11-16T16:32:32.821Z,96028.44
2022-11-16T16:35:02.094Z,95995.97
2022-11-16T16:37:31.021Z,96054.56
2022-11-16T16:39:58.439Z,96010.31
2022-11-16T16:42:25.456Z,96056.56
2022-11-16T16:44:54.365Z,96045.50
2022-11-16T16:47:21.509Z,96027.31
2022-11-16T16:49:50.906Z,95998.84
2022-11-16T16:52:18.296Z,96057.41
2022-11-16T16:54:44.928Z,95964.81
2022-11-16T16:57:16.292Z,96052.25
2022-11-16T16:59:45.320Z,96048.69
2022-11-16T17:02:17.517Z,96043.94
2022-11-16T17:04:49.081Z,96038.38
2022-11-16T17:07:18.559Z,96024.16
2022-11-16T17:09:45.678Z,96064.91
2022-11-16T17:12:12.567Z,96058.19
2022-11-16T17:14:39.199Z,96056.59
2022-11-16T17:17:05.874Z,96009.88
2022-11-16T17:19:32.929Z,96054.19
2022-11-16T17:22:00.197Z,96061.31
2022-11-16T17:24:26.893Z,96058.13
2022-11-16T17:26:53.658Z,96059.75
2022-11-16T17:29:20.291Z,96064.03
2022-11-16T17:31:47.700Z,96058.91
2022-11-16T17:34:14.660Z,96056.53
2022-11-16T17:36:42.464Z,96033.47
2022-11-16T17:39:09.456Z,96014.44
2022-11-16T17:41:36.632Z,96058.75
2022-11-16T17:44:04.528Z,96060.72
2022-11-16T17:46:31.217Z,96061.47
2022-11-16T17:48:57.975Z,96058.31
2022-11-16T17:51:25.353Z,96048.81
2022-11-16T17:53:53.783Z,96051.19
2022-11-16T17:56:28.249Z,96047.25
2022-11-16T17:58:58.620Z,96050.34
2022-11-16T18:01:28.289Z,96064.97
2022-11-16T18:03:56.060Z,96007.59
2022-11-16T18:06:25.118Z,96046.78
2022-11-16T18:08:52.985Z,96037.22
2022-11-16T18:11:22.501Z,96053.06
2022-11-16T18:13:53.576Z,96016.56
2022-11-16T18:16:22.638Z,96055.06
2022-11-16T18:18:50.000Z,96056.59
2022-11-16T18:21:20.754Z,96057.75
2022-11-16T18:23:47.982Z,96057.38
2022-11-16T18:26:17.572Z,96055.34
2022-11-16T18:28:51.761Z,96049.81
2022-11-16T18:31:20.543Z,95957.47
2022-11-16T18:33:49.241Z,96053.38
2022-11-16T18:36:16.584Z,96094.47
2022-11-16T18:38:43.211Z,95965.13
2022-11-16T18:41:19.645Z,96027.75
2022-11-16T18:43:56.082Z,96048.28
2022-11-16T18:46:28.057Z,96044.31
2022-11-16T18:48:55.958Z,95982.00
2022-11-16T18:51:24.421Z,96049.41
2022-11-16T18:53:51.064Z,96050.09
2022-11-16T18:56:18.060Z,96011.44
2022-11-16T18:58:53.366Z,96043.75
2022-11-16T19:01:23.230Z,96041.66
2022-11-16T19:03:51.176Z,96044.75
2022-11-16T19:06:18.268Z,96043.91
2022-11-16T19:08:50.427Z,96053.03
2022-11-16T19:11:20.760Z,95982.78
2022-11-16T19:13:56.264Z,96047.06
2022-11-16T19:16:24.049Z,96033.50
2022-11-16T19:18:50.630Z,96046.22
2022-11-16T19:21:18.728Z,96054.44
2022-11-16T19:23:48.045Z,96049.31
2022-11-16T19:26:16.124Z,96044.63
2022-11-16T19:28:44.877Z,96049.28
2022-11-16T19:31:25.390Z,96048.16
2022-11-16T19:34:07.060Z,96045.38
2022-11-16T19:36:36.199Z,96046.19
2022-11-16T19:39:04.222Z,96012.09
2022-11-16T19:41:30.795Z,96038.28
2022-11-16T19:43:59.959Z,96043.03
2022-11-16T19:46:28.742Z,95989.06
2022-11-16T19:48:56.189Z,96040.34
2022-11-16T19:51:31.043Z,96031.22
2022-11-16T19:53:59.323Z,95973.41
2022-11-16T19:56:26.591Z,96037.47
2022-11-16T19:58:53.359Z,95973.13
2022-11-16T20:01:23.062Z,96025.66
2022-11-16T20:03:50.046Z,96019.44
2022-11-16T20:06:31.409Z,96026.06
2022-11-16T20:09:03.943Z,96016.28
2022-11-16T20:11:33.706Z,95955.22
2022-11-16T20:14:00.799Z,95989.06
2022-11-16T20:16:34.035Z,96014.56
2022-11-16T20:19:05.482Z,95974.94
2022-11-16T20:21:34.729Z,96020.91
2022-11-16T20:24:06.815Z,96017.34
2022-11-16T20:26:35.853Z,96012.09
2022-11-16T20:29:03.041Z,96024.44
2022-11-16T20:31:32.029Z,95979.69
2022-11-16T20:34:04.478Z,96032.72
2022-11-16T20:36:32.985Z,96031.88
2022-11-16T20:39:00.305Z,95971.25
2022-11-16T20:41:28.878Z,96002.63
2022-11-16T20:43:57.453Z,96034.38
2022-11-16T20:46:28.749Z,96015.50
2022-11-16T20:48:57.349Z,96021.06
2022-11-16T20:51:24.070Z,96031.31
2022-11-16T20:53:50.759Z,96025.84
2022-11-16T20:56:19.301Z,96014.41
2022-11-16T20:58:46.875Z,95957.88
2022-11-16T21:01:16.167Z,96007.81
2022-11-16T21:03:44.625Z,96011.75
2022-11-16T21:06:12.859Z,96013.38
2022-11-16T21:08:40.504Z,96011.78
2022-11-16T21:11:16.007Z,95956.78
2022-11-16T21:14:01.530Z,95643.00
2022-11-16T21:16:28.195Z,96014.22
2022-11-16T21:18:55.642Z,95992.88
2022-11-16T21:21:22.413Z,96015.72
2022-11-16T21:23:51.935Z,95966.91
2022-11-16T21:26:26.370Z,95995.88
2022-11-16T21:28:53.377Z,96021.28
2022-11-16T21:31:22.423Z,96016.13
2022-11-16T21:33:49.006Z,96018.13
2022-11-16T21:36:17.695Z,96014.16
2022-11-16T21:38:45.220Z,96013.78
2022-11-16T21:41:13.249Z,96016.97
2022-11-16T21:43:42.722Z,96013.84
2022-11-16T21:46:18.433Z,96013.00
2022-11-16T21:48:46.959Z,96007.84
2022-11-16T21:51:19.326Z,96002.72
2022-11-16T21:53:46.078Z,96000.03
2022-11-16T21:56:15.028Z,96002.59
2022-11-16T21:58:42.104Z,96002.88
2022-11-16T22:01:09.887Z,95995.69
2022-11-16T22:03:37.062Z,95999.22
2022-11-16T22:06:24.001Z,95995.53
2022-11-16T22:08:50.632Z,95995.44
2022-11-16T22:11:17.912Z,95986.06
2022-11-16T22:13:44.449Z,95986.16
2022-11-16T22:16:15.142Z,95936.41
2022-11-16T22:18:42.307Z,95986.78
2022-11-16T22:21:09.265Z,95983.75
2022-11-16T22:23:36.455Z,95975.56
2022-11-16T22:26:11.596Z,95985.16
2022-11-16T22:28:39.355Z,95947.81
2022-11-16T22:31:14.097Z,95970.09
2022-11-16T22:33:41.384Z,95973.78
2022-11-16T22:36:10.202Z,95980.19
2022-11-16T22:38:37.413Z,95967.25
2022-11-16T22:41:04.333Z,95973.66
2022-11-16T22:43:32.552Z,95974.44
2022-11-16T22:46:05.542Z,95975.28
2022-11-16T22:48:34.112Z,95963.81
2022-11-16T22:51:09.793Z,95961.03
2022-11-16T22:53:36.648Z,95959.44
2022-11-16T22:56:05.365Z,95961.78
2022-11-16T22:58:31.955Z,95966.56
2022-11-16T23:00:58.558Z,95969.75
2022-11-16T23:03:25.180Z,95952.28
2022-11-16T23:05:51.838Z,95971.28
2022-11-16T23:08:18.421Z,95968.13
2022-11-16T23:11:03.750Z,95959.84
2022-11-16T23:13:48.785Z,95965.03
2022-11-16T23:16:15.319Z,95912.78
2022-11-16T23:18:41.860Z,95924.69
2022-11-16T23:21:27.345Z,95938.19
2022-11-16T23:24:12.363Z,95848.69
2022-11-16T23:26:57.648Z,95935.38
2022-11-16T23:29:24.263Z,95919.63
2022-11-16T23:31:50.796Z,95922.81
2022-11-16T23:34:17.383Z,95933.16
2022-11-16T23:36:43.929Z,95925.66
2022-11-16T23:39:10.627Z,95913.78
2022-11-16T23:41:55.833Z,95932.84
2022-11-16T23:44:22.396Z,95935.22
2022-11-16T23:46:48.940Z,95827.59
2022-11-16T23:49:15.502Z,95934.03
2022-11-16T23:51:42.032Z,95871.91
2022-11-16T23:54:08.631Z,95920.22
2022-11-16T23:56:35.238Z,95933.66
2022-11-16T23:59:01.790Z,95934.44
